createdAt,value
2019-02-16T00:01:25.719Z,99.90
2019-02-16T00:03:52.096Z,99.90
2019-02-16T00:06:18.480Z,99.90
2019-02-16T00:08:44.833Z,99.90
2019-02-16T00:11:11.204Z,99.90
2019-02-16T00:13:38.702Z,99.90
2019-02-16T00:16:05.056Z,99.90
2019-02-16T00:18:31.420Z,99.90
2019-02-16T00:21:03.681Z,99.90
2019-02-16T00:23:25.931Z,99.90
2019-02-16T00:25:52.320Z,99.90
2019-02-16T00:28:18.675Z,99.90
2019-02-16T00:30:45.117Z,99.90
2019-02-16T00:33:11.579Z,99.90
2019-02-16T00:35:37.944Z,99.90
2019-02-16T00:38:04.313Z,99.90
2019-02-16T00:40:30.684Z,99.90
2019-02-16T00:42:57.134Z,99.90
2019-02-16T00:45:23.498Z,99.90
2019-02-16T00:47:49.868Z,99.90
2019-02-16T00:50:16.208Z,99.90
2019-02-16T00:52:42.615Z,99.90
2019-02-16T00:55:08.987Z,99.90
2019-02-16T00:57:35.380Z,99.90
2019-02-16T01:00:02.495Z,99.90
2019-02-16T01:02:30.608Z,99.90
2019-02-16T01:04:56.943Z,99.90
2019-02-16T01:07:23.297Z,99.90
2019-02-16T01:09:49.656Z,99.90
2019-02-16T01:12:16.195Z,99.90
2019-02-16T01:14:42.637Z,99.90
2019-02-16T01:17:08.947Z,99.90
2019-02-16T01:19:35.352Z,99.90
2019-02-16T01:22:02.818Z,99.90
2019-02-16T01:24:29.258Z,99.90
2019-02-16T01:26:55.588Z,99.90
2019-02-16T01:29:22.013Z,99.90
2019-02-16T01:31:48.404Z,99.90
2019-02-16T01:34:14.751Z,99.90
2019-02-16T01:36:41.168Z,99.90
2019-02-16T01:39:08.505Z,99.90
2019-02-16T01:41:34.883Z,99.90
2019-02-16T01:44:01.241Z,99.90
2019-02-16T01:46:27.663Z,99.90
2019-02-16T01:48:53.995Z,99.90
2019-02-16T01:51:20.360Z,99.90
2019-02-16T01:53:46.733Z,99.90
2019-02-16T01:56:13.090Z,99.90
2019-02-16T01:58:39.510Z,99.90
2019-02-16T02:01:05.883Z,99.90
2019-02-16T02:03:32.268Z,99.90
2019-02-16T02:06:01.412Z,99.90
2019-02-16T02:08:27.819Z,99.90
2019-02-16T02:10:55.265Z,99.90
2019-02-16T02:13:21.686Z,99.90
2019-02-16T02:15:48.083Z,99.90
2019-02-16T02:18:14.506Z,99.90
2019-02-16T02:20:40.901Z,99.90
2019-02-16T02:23:07.228Z,99.90
2019-02-16T02:25:33.652Z,99.90
2019-02-16T02:27:59.996Z,99.90
2019-02-16T02:30:26.420Z,99.90
2019-02-16T02:32:52.741Z,99.90
2019-02-16T02:35:19.243Z,99.90
2019-02-16T02:37:45.612Z,99.90
2019-02-16T02:40:12.053Z,99.90
2019-02-16T02:42:38.508Z,99.90
2019-02-16T02:45:08.741Z,99.90
2019-02-16T02:47:35.110Z,99.90
2019-02-16T02:50:01.449Z,99.90
2019-02-16T02:52:27.907Z,99.90
2019-02-16T02:54:54.295Z,99.90
2019-02-16T02:57:20.622Z,99.90
2019-02-16T02:59:47.308Z,99.90
2019-02-16T03:02:13.771Z,99.90
2019-02-16T03:04:40.127Z,99.90
2019-02-16T03:07:06.446Z,99.90
2019-02-16T03:09:32.938Z,99.90
2019-02-16T03:11:59.344Z,99.90
2019-02-16T03:14:25.721Z,99.90
2019-02-16T03:16:52.073Z,99.90
2019-02-16T03:19:18.514Z,99.90
2019-02-16T03:21:44.823Z,99.90
2019-02-16T03:24:11.224Z,99.90
2019-02-16T03:26:44.447Z,99.90
2019-02-16T03:29:20.897Z,99.90
2019-02-16T03:32:05.639Z,99.90
2019-02-16T03:34:38.815Z,99.90
2019-02-16T03:37:09.013Z,99.90
2019-02-16T03:39:37.270Z,99.90
2019-02-16T03:42:03.729Z,99.90
2019-02-16T03:44:30.491Z,99.90
2019-02-16T03:46:56.886Z,99.90
2019-02-16T03:49:23.280Z,99.90
2019-02-16T03:51:49.685Z,99.90
2019-02-16T03:54:16.065Z,99.90
2019-02-16T03:56:42.455Z,99.90
2019-02-16T03:59:08.842Z,99.90
2019-02-16T04:01:35.774Z,99.90
2019-02-16T04:04:02.269Z,99.90
2019-02-16T04:06:28.685Z,99.90
2019-02-16T04:08:55.034Z,99.90
2019-02-16T04:11:21.449Z,99.90
2019-02-16T04:13:47.846Z,99.90
2019-02-16T04:16:14.292Z,99.90
2019-02-16T04:18:40.622Z,99.90
2019-02-16T04:21:07.014Z,99.90
2019-02-16T04:23:33.328Z,99.90
2019-02-16T04:25:59.685Z,99.90
2019-02-16T04:28:26.061Z,99.90
2019-02-16T04:30:52.418Z,99.90
2019-02-16T04:33:18.813Z,99.90
2019-02-16T04:35:45.156Z,99.90
2019-02-16T04:38:12.638Z,99.90
2019-02-16T04:40:38.980Z,99.90
2019-02-16T04:43:05.505Z,99.90
2019-02-16T04:45:31.833Z,99.90
2019-02-16T04:47:58.224Z,99.90
2019-02-16T04:50:24.615Z,99.90
2019-02-16T04:52:50.988Z,99.90
2019-02-16T04:55:17.370Z,99.90
2019-02-16T04:57:43.756Z,99.90
2019-02-16T05:00:10.215Z,99.90
2019-02-16T05:02:36.596Z,99.90
2019-02-16T05:05:04.439Z,99.90
2019-02-16T05:07:30.894Z,99.90
2019-02-16T05:09:57.190Z,99.90
2019-02-16T05:12:23.556Z,99.90
2019-02-16T05:14:49.936Z,99.90
2019-02-16T05:17:16.280Z,99.90
2019-02-16T05:19:42.665Z,99.90
2019-02-16T05:22:09.045Z,99.90
2019-02-16T05:24:35.426Z,99.90
2019-02-16T05:27:01.778Z,99.90
2019-02-16T05:29:28.121Z,99.90
2019-02-16T05:31:54.490Z,99.90
2019-02-16T05:34:23.627Z,99.90
2019-02-16T05:36:50.006Z,99.90
2019-02-16T05:39:16.433Z,99.90
2019-02-16T05:41:42.782Z,99.90
2019-02-16T05:44:09.141Z,99.90
2019-02-16T05:46:35.525Z,99.90
2019-02-16T05:49:01.971Z,99.90
2019-02-16T05:51:28.320Z,99.90
2019-02-16T05:53:54.706Z,99.90
2019-02-16T05:56:21.083Z,99.90
2019-02-16T05:58:47.498Z,99.90
2019-02-16T06:01:13.820Z,99.90
2019-02-16T06:03:40.233Z,99.90
2019-02-16T06:06:06.592Z,99.90
2019-02-16T06:08:32.951Z,99.90
2019-02-16T06:10:59.277Z,99.90
2019-02-16T06:13:25.632Z,99.90
2019-02-16T06:15:52.059Z,99.90
2019-02-16T06:18:18.510Z,99.90
2019-02-16T06:20:44.914Z,99.90
2019-02-16T06:23:11.336Z,99.90
2019-02-16T06:25:37.731Z,99.90
2019-02-16T06:28:04.072Z,99.90
2019-02-16T06:30:30.515Z,99.90
2019-02-16T06:32:56.922Z,99.90
2019-02-16T06:35:25.239Z,99.90
2019-02-16T06:37:51.639Z,99.90
2019-02-16T06:40:18.061Z,99.90
2019-02-16T06:42:44.437Z,99.90
2019-02-16T06:45:10.838Z,99.90
2019-02-16T06:47:37.206Z,99.90
2019-02-16T06:50:04.360Z,99.90
2019-02-16T06:52:30.747Z,99.90
2019-02-16T06:54:57.102Z,99.90
2019-02-16T06:57:25.397Z,99.90
2019-02-16T06:59:51.765Z,99.90
2019-02-16T07:02:18.736Z,99.90
2019-02-16T07:04:45.135Z,99.90
2019-02-16T07:07:11.583Z,99.90
2019-02-16T07:09:37.991Z,99.90
2019-02-16T07:12:04.397Z,99.90
2019-02-16T07:14:31.944Z,99.90
2019-02-16T07:17:17.217Z,99.90
2019-02-16T07:19:45.600Z,99.90
2019-02-16T07:22:11.922Z,99.90
2019-02-16T07:24:38.332Z,99.90
2019-02-16T07:27:04.674Z,99.90
2019-02-16T07:29:31.123Z,99.90
2019-02-16T07:31:57.501Z,99.90
2019-02-16T07:34:23.939Z,99.90
2019-02-16T07:36:50.382Z,99.90
2019-02-16T07:39:16.819Z,99.90
2019-02-16T07:41:43.190Z,99.90
2019-02-16T07:44:14.569Z,99.90
2019-02-16T07:46:42.872Z,99.90
2019-02-16T07:49:14.099Z,99.90
2019-02-16T07:51:42.376Z,99.90
2019-02-16T07:54:10.672Z,99.90
2019-02-16T07:56:38.995Z,99.90
2019-02-16T07:59:22.687Z,99.90
2019-02-16T08:01:53.560Z,99.90
2019-02-16T08:04:36.893Z,99.90
2019-02-16T08:07:13.888Z,99.90
2019-02-16T08:09:44.904Z,99.90
2019-02-16T08:12:13.150Z,99.90
2019-02-16T08:14:47.433Z,99.90
2019-02-16T08:17:27.828Z,99.90
2019-02-16T08:20:08.412Z,99.90
2019-02-16T08:22:53.717Z,99.90
2019-02-16T08:25:25.276Z,99.90
2019-02-16T08:27:53.585Z,99.90
2019-02-16T08:30:22.944Z,99.90
2019-02-16T08:32:53.897Z,99.90
2019-02-16T08:35:35.135Z,99.90
2019-02-16T08:38:06.080Z,99.90
2019-02-16T08:40:40.394Z,99.90
2019-02-16T08:43:15.564Z,99.90
2019-02-16T08:45:47.069Z,99.90
2019-02-16T08:48:15.564Z,99.90
2019-02-16T08:51:01.269Z,99.90
2019-02-16T08:53:39.422Z,95.50
2019-02-16T08:56:10.659Z,92.70
2019-02-16T08:58:45.345Z,89.70
2019-02-16T09:01:30.365Z,87.90
2019-02-16T09:04:05.083Z,78.50
2019-02-16T09:06:50.558Z,82.20
2019-02-16T09:09:25.032Z,90.50
2019-02-16T09:11:54.096Z,92.00
2019-02-16T09:14:34.294Z,90.80
2019-02-16T09:17:14.235Z,83.10
2019-02-16T09:19:45.551Z,74.00
2019-02-16T09:22:14.901Z,66.30
2019-02-16T09:24:49.437Z,64.20
2019-02-16T09:27:17.790Z,64.10
2019-02-16T09:29:46.126Z,61.60
2019-02-16T09:32:14.486Z,62.50
2019-02-16T09:34:42.935Z,66.00
2019-02-16T09:37:17.246Z,62.40
2019-02-16T09:39:48.667Z,56.30
2019-02-16T09:42:22.518Z,55.70
2019-02-16T09:44:50.820Z,55.30
2019-02-16T09:47:35.382Z,55.00
2019-02-16T09:50:19.553Z,57.30
2019-02-16T09:52:47.818Z,58.10
2019-02-16T09:55:28.387Z,56.50
2019-02-16T09:58:00.029Z,55.40
2019-02-16T10:00:31.828Z,56.50
2019-02-16T10:03:17.983Z,55.80
2019-02-16T10:05:49.156Z,53.50
2019-02-16T10:08:23.656Z,51.00
2019-02-16T10:10:51.913Z,53.70
2019-02-16T10:13:28.939Z,54.30
2019-02-16T10:16:03.238Z,52.30
2019-02-16T10:18:37.594Z,55.60
2019-02-16T10:21:12.017Z,57.50
2019-02-16T10:23:43.097Z,67.70
2019-02-16T10:26:11.461Z,73.20
2019-02-16T10:28:39.727Z,76.20
2019-02-16T10:31:10.947Z,78.80
2019-02-16T10:33:39.179Z,75.50
2019-02-16T10:36:10.583Z,77.70
2019-02-16T10:38:38.874Z,76.50
2019-02-16T10:41:22.166Z,77.90
2019-02-16T10:43:50.443Z,77.80
2019-02-16T10:46:25.871Z,76.80
2019-02-16T10:48:59.750Z,70.90
2019-02-16T10:51:31.686Z,67.80
2019-02-16T10:54:14.818Z,61.80
2019-02-16T10:56:59.911Z,58.60
2019-02-16T10:59:45.888Z,58.00
2019-02-16T11:02:20.469Z,54.20
2019-02-16T11:05:05.746Z,54.50
2019-02-16T11:07:40.319Z,51.60
2019-02-16T11:10:10.589Z,54.00
2019-02-16T11:12:42.117Z,56.40
2019-02-16T11:15:12.463Z,57.90
2019-02-16T11:17:57.531Z,54.30
2019-02-16T11:20:26.140Z,53.20
2019-02-16T11:23:10.947Z,53.60
2019-02-16T11:25:39.290Z,51.50
2019-02-16T11:28:25.980Z,54.40
2019-02-16T11:31:10.755Z,53.80
2019-02-16T11:33:42.195Z,49.60
2019-02-16T11:36:10.925Z,48.30
2019-02-16T11:38:39.310Z,48.30
2019-02-16T11:41:18.605Z,48.00
2019-02-16T11:43:57.095Z,50.20
2019-02-16T11:46:28.669Z,50.60
2019-02-16T11:48:56.966Z,49.90
2019-02-16T11:51:31.337Z,50.70
2019-02-16T11:54:02.453Z,50.30
2019-02-16T11:56:39.582Z,48.30
2019-02-16T11:59:14.008Z,46.40
2019-02-16T12:01:51.860Z,46.10
2019-02-16T12:04:20.445Z,44.00
2019-02-16T12:06:54.888Z,42.10
2019-02-16T12:09:23.280Z,40.50
2019-02-16T12:11:52.211Z,39.80
2019-02-16T12:14:26.284Z,40.20
2019-02-16T12:16:55.503Z,38.00
2019-02-16T12:19:30.181Z,36.90
2019-02-16T12:22:08.041Z,36.40
2019-02-16T12:24:36.474Z,37.70
2019-02-16T12:27:05.752Z,38.40
2019-02-16T12:29:40.410Z,38.30
2019-02-16T12:32:20.581Z,38.00
2019-02-16T12:35:00.996Z,39.20
2019-02-16T12:37:32.496Z,37.30
2019-02-16T12:40:09.987Z,38.70
2019-02-16T12:42:39.525Z,36.90
2019-02-16T12:45:21.273Z,37.60
2019-02-16T12:47:49.689Z,37.80
2019-02-16T12:50:20.873Z,36.40
2019-02-16T12:52:55.204Z,37.30
2019-02-16T12:55:32.294Z,38.40
2019-02-16T12:58:10.074Z,37.00
2019-02-16T13:00:41.953Z,38.60
2019-02-16T13:03:13.357Z,37.80
2019-02-16T13:05:54.275Z,37.40
2019-02-16T13:08:26.018Z,37.90
2019-02-16T13:10:54.831Z,37.70
2019-02-16T13:13:29.939Z,38.50
2019-02-16T13:15:59.090Z,38.40
2019-02-16T13:18:37.157Z,39.20
2019-02-16T13:21:11.381Z,38.90
2019-02-16T13:23:48.835Z,37.40
2019-02-16T13:26:19.999Z,37.10
2019-02-16T13:29:04.211Z,38.90
2019-02-16T13:31:47.729Z,38.40
2019-02-16T13:34:22.082Z,36.70
2019-02-16T13:36:59.238Z,38.10
2019-02-16T13:39:27.896Z,37.80
2019-02-16T13:41:59.259Z,38.20
2019-02-16T13:44:36.394Z,38.90
2019-02-16T13:47:04.676Z,39.30
2019-02-16T13:49:33.147Z,40.20
2019-02-16T13:52:18.017Z,41.10
2019-02-16T13:54:46.809Z,44.50
2019-02-16T13:57:31.732Z,48.30
2019-02-16T14:00:09.630Z,49.60
2019-02-16T14:02:40.820Z,51.60
2019-02-16T14:05:09.113Z,56.50
2019-02-16T14:07:49.308Z,59.40
2019-02-16T14:10:17.721Z,64.90
2019-02-16T14:12:45.974Z,65.10
2019-02-16T14:15:23.221Z,67.00
2019-02-16T14:17:51.568Z,68.50
2019-02-16T14:20:17.868Z,69.80
2019-02-16T14:22:44.319Z,71.60
2019-02-16T14:25:13.636Z,74.10
2019-02-16T14:27:40.081Z,74.10
2019-02-16T14:30:09.478Z,75.60
2019-02-16T14:32:35.878Z,76.70
2019-02-16T14:35:03.462Z,77.70
2019-02-16T14:37:34.479Z,78.50
2019-02-16T14:40:00.869Z,80.10
2019-02-16T14:42:27.221Z,80.50
2019-02-16T14:44:53.580Z,80.90
2019-02-16T14:47:19.938Z,82.50
2019-02-16T14:49:46.313Z,82.60
2019-02-16T14:52:12.726Z,82.70
2019-02-16T14:54:39.116Z,83.80
2019-02-16T14:57:05.539Z,83.90
2019-02-16T14:59:31.913Z,84.40
2019-02-16T15:01:58.322Z,83.80
2019-02-16T15:04:24.675Z,84.60
2019-02-16T15:06:51.152Z,84.80
2019-02-16T15:09:17.567Z,85.70
2019-02-16T15:11:43.992Z,84.50
2019-02-16T15:14:10.341Z,85.10
2019-02-16T15:16:36.782Z,87.80
2019-02-16T15:19:03.192Z,88.80
2019-02-16T15:21:29.610Z,89.50
2019-02-16T15:23:55.982Z,91.10
2019-02-16T15:26:28.404Z,91.50
2019-02-16T15:28:50.535Z,92.50
2019-02-16T15:31:17.014Z,93.10
2019-02-16T15:33:43.440Z,93.70
2019-02-16T15:36:09.853Z,94.60
2019-02-16T15:38:36.264Z,95.30
2019-02-16T15:41:02.725Z,95.90
2019-02-16T15:43:29.125Z,96.10
2019-02-16T15:45:55.486Z,96.30
2019-02-16T15:48:21.919Z,96.60
2019-02-16T15:50:48.242Z,97.00
2019-02-16T15:53:14.695Z,97.60
2019-02-16T15:55:41.019Z,97.60
2019-02-16T15:58:07.510Z,98.00
2019-02-16T16:00:33.904Z,98.40
2019-02-16T16:03:00.248Z,98.50
2019-02-16T16:05:26.760Z,98.60
2019-02-16T16:08:11.590Z,99.10
2019-02-16T16:10:39.876Z,98.80
2019-02-16T16:13:17.065Z,98.90
2019-02-16T16:15:52.436Z,99.10
2019-02-16T16:18:32.365Z,98.90
2019-02-16T16:21:18.757Z,99.20
2019-02-16T16:23:58.741Z,99.30
2019-02-16T16:26:45.368Z,99.20
2019-02-16T16:29:19.334Z,99.20
2019-02-16T16:31:53.341Z,99.40
2019-02-16T16:34:21.635Z,99.30
2019-02-16T16:37:08.403Z,99.60
2019-02-16T16:39:52.096Z,99.90
2019-02-16T16:42:25.915Z,99.90
2019-02-16T16:45:09.127Z,99.90
2019-02-16T16:47:55.624Z,99.90
2019-02-16T16:50:40.776Z,99.90
2019-02-16T16:53:11.706Z,99.90
2019-02-16T16:55:48.741Z,99.90
2019-02-16T16:58:17.051Z,99.90
2019-02-16T17:01:03.791Z,99.90
2019-02-16T17:03:44.427Z,99.90
2019-02-16T17:06:29.168Z,99.90
2019-02-16T17:09:00.040Z,99.90
2019-02-16T17:11:43.464Z,99.80
2019-02-16T17:14:14.611Z,99.80
2019-02-16T17:16:55.000Z,99.90
2019-02-16T17:19:26.409Z,99.90
2019-02-16T17:22:01.347Z,99.90
2019-02-16T17:24:35.770Z,99.90
2019-02-16T17:27:04.040Z,99.90
2019-02-16T17:29:32.572Z,99.90
2019-02-16T17:32:06.991Z,99.90
2019-02-16T17:34:35.356Z,99.90
2019-02-16T17:37:20.572Z,99.90
2019-02-16T17:39:48.893Z,99.90
2019-02-16T17:42:26.235Z,99.90
2019-02-16T17:44:54.810Z,99.90
2019-02-16T17:47:26.347Z,99.90
2019-02-16T17:49:57.733Z,99.90
2019-02-16T17:52:42.909Z,99.90
2019-02-16T17:55:20.051Z,99.90
2019-02-16T17:57:48.315Z,99.90
2019-02-16T18:00:33.010Z,99.90
2019-02-16T18:03:04.391Z,99.90
2019-02-16T18:05:49.501Z,99.90
2019-02-16T18:08:17.722Z,99.90
2019-02-16T18:10:49.432Z,99.90
2019-02-16T18:13:20.593Z,99.90
2019-02-16T18:15:49.074Z,99.90
2019-02-16T18:18:17.507Z,99.90
2019-02-16T18:20:46.513Z,99.90
2019-02-16T18:23:14.873Z,99.90
2019-02-16T18:25:43.458Z,99.90
2019-02-16T18:28:24.298Z,99.90
2019-02-16T18:30:58.750Z,99.90
2019-02-16T18:33:31.734Z,99.90
2019-02-16T18:36:03.236Z,99.90
2019-02-16T18:38:32.015Z,99.90
2019-02-16T18:41:12.537Z,99.90
2019-02-16T18:43:43.941Z,99.90
2019-02-16T18:46:21.271Z,99.90
2019-02-16T18:48:49.627Z,99.90
2019-02-16T18:51:21.137Z,99.90
2019-02-16T18:54:01.792Z,99.90
2019-02-16T18:56:32.936Z,99.90
2019-02-16T18:59:04.465Z,99.90
2019-02-16T19:01:51.462Z,99.90
2019-02-16T19:04:34.597Z,99.90
2019-02-16T19:07:09.059Z,99.90
2019-02-16T19:09:49.113Z,99.90
2019-02-16T19:12:32.739Z,99.90
2019-02-16T19:15:09.768Z,99.90
2019-02-16T19:17:44.036Z,99.90
2019-02-16T19:20:14.864Z,99.90
2019-02-16T19:22:43.134Z,99.90
2019-02-16T19:25:29.617Z,99.90
2019-02-16T19:28:12.766Z,99.90
2019-02-16T19:30:44.254Z,99.90
2019-02-16T19:33:14.558Z,99.90
2019-02-16T19:35:42.714Z,99.90
2019-02-16T19:38:10.941Z,99.90
2019-02-16T19:40:39.314Z,99.90
2019-02-16T19:43:10.347Z,99.90
2019-02-16T19:45:44.782Z,99.90
2019-02-16T19:48:21.613Z,99.90
2019-02-16T19:50:58.577Z,99.90
2019-02-16T19:53:43.681Z,99.90
2019-02-16T19:56:18.835Z,99.90
2019-02-16T19:58:49.616Z,99.90
2019-02-16T20:01:20.782Z,99.90
2019-02-16T20:03:52.193Z,99.90
2019-02-16T20:06:36.921Z,99.90
2019-02-16T20:09:13.548Z,99.90
2019-02-16T20:11:50.458Z,99.90
2019-02-16T20:14:35.487Z,99.90
2019-02-16T20:17:06.636Z,99.90
2019-02-16T20:19:51.857Z,99.90
2019-02-16T20:22:23.282Z,99.90
2019-02-16T20:24:57.309Z,99.90
2019-02-16T20:27:25.612Z,99.90
2019-02-16T20:30:02.532Z,99.90
2019-02-16T20:32:36.805Z,99.90
2019-02-16T20:35:11.142Z,99.90
2019-02-16T20:37:57.404Z,99.90
2019-02-16T20:40:42.005Z,99.90
2019-02-16T20:43:10.282Z,99.90
2019-02-16T20:45:38.598Z,99.90
2019-02-16T20:48:22.150Z,99.90
2019-02-16T20:50:52.924Z,99.90
2019-02-16T20:53:21.201Z,99.90
2019-02-16T20:55:52.293Z,99.90
2019-02-16T20:58:26.366Z,99.90
2019-02-16T21:00:54.660Z,99.90
2019-02-16T21:03:22.951Z,99.90
2019-02-16T21:06:00.070Z,99.90
2019-02-16T21:08:28.330Z,99.90
2019-02-16T21:10:56.647Z,99.90
2019-02-16T21:13:27.647Z,99.90
2019-02-16T21:16:04.925Z,99.90
2019-02-16T21:18:39.418Z,99.90
2019-02-16T21:21:10.966Z,99.90
2019-02-16T21:23:39.346Z,99.90
2019-02-16T21:26:22.465Z,99.90
2019-02-16T21:29:07.194Z,99.90
2019-02-16T21:31:36.149Z,99.90
2019-02-16T21:34:16.713Z,99.90
2019-02-16T21:36:48.069Z,99.90
2019-02-16T21:39:34.972Z,99.90
2019-02-16T21:42:12.113Z,99.90
2019-02-16T21:44:44.248Z,99.90
2019-02-16T21:47:29.497Z,99.90
2019-02-16T21:50:04.592Z,99.90
2019-02-16T21:52:50.032Z,99.90
2019-02-16T21:55:35.566Z,99.90
2019-02-16T21:58:19.394Z,99.90
2019-02-16T22:00:54.093Z,99.90
2019-02-16T22:03:34.474Z,99.90
2019-02-16T22:06:19.803Z,99.90
2019-02-16T22:08:48.626Z,99.90
2019-02-16T22:11:35.503Z,99.90
2019-02-16T22:14:01.968Z,99.90
2019-02-16T22:16:29.403Z,99.90
2019-02-16T22:18:55.826Z,99.90
2019-02-16T22:21:22.271Z,99.90
2019-02-16T22:23:48.714Z,99.90
2019-02-16T22:26:15.084Z,99.90
2019-02-16T22:28:41.451Z,99.90
2019-02-16T22:31:08.935Z,99.90
2019-02-16T22:33:35.295Z,99.90
2019-02-16T22:36:01.658Z,99.90
2019-02-16T22:38:28.034Z,99.90
2019-02-16T22:40:54.455Z,99.90
2019-02-16T22:43:20.854Z,99.90
2019-02-16T22:45:47.251Z,99.90
2019-02-16T22:48:13.643Z,99.90
2019-02-16T22:50:40.081Z,99.90
2019-02-16T22:53:06.461Z,99.90
2019-02-16T22:55:32.798Z,99.90
2019-02-16T22:57:59.211Z,99.90
2019-02-16T23:00:37.463Z,99.90
2019-02-16T23:03:06.111Z,99.90
2019-02-16T23:05:32.581Z,99.90
2019-02-16T23:07:59.557Z,99.90
2019-02-16T23:10:26.060Z,99.90
2019-02-16T23:12:52.390Z,99.90
2019-02-16T23:15:20.282Z,99.90
2019-02-16T23:17:46.901Z,99.90
2019-02-16T23:20:13.232Z,99.90
2019-02-16T23:22:39.664Z,99.90
2019-02-16T23:25:07.282Z,99.90
2019-02-16T23:27:33.774Z,99.90
2019-02-16T23:30:00.382Z,99.90
2019-02-16T23:32:26.772Z,99.90
2019-02-16T23:34:53.151Z,99.90
2019-02-16T23:37:19.484Z,99.90
2019-02-16T23:39:45.888Z,99.90
2019-02-16T23:42:12.237Z,99.90
2019-02-16T23:44:38.624Z,99.90
2019-02-16T23:47:05.060Z,99.90
2019-02-16T23:49:31.506Z,99.90
2019-02-16T23:51:57.861Z,99.90
2019-02-16T23:54:24.340Z,99.90
2019-02-16T23:56:50.657Z,99.90
2019-02-16T23:59:17.094Z,99.90
